Time;durP1;ratioP1;P1;durP2;ratioP2;P2;SDS_P1;SDS_P2;PMS_P1;PMS_P2;Temp;Humidity;BMP_temperature;BMP_pressure;BME280_temperature;BME280_humidity;BME280_pressure;Samples;Min_cycle;Max_cycle;Signal;HPM_P1;HPM_P2
2022/03/09 00:01:27;;;;;;;10.27;5.93;;;0.70;99.90;;;;;;5090516;28;20567;-72
2022/03/09 00:03:54;;;;;;;11.43;5.90;;;0.60;99.90;;;;;;5092890;28;20201;-72
2022/03/09 00:06:23;;;;;;;13.77;6.60;;;0.20;1.00;;;;;;5092109;28;20252;-72
2022/03/09 00:08:50;;;;;;;11.83;6.13;;;0.20;1.00;;;;;;5094894;28;20251;-72
2022/03/09 00:11:17;;;;;;;10.33;5.77;;;0.20;1.00;;;;;;5105880;28;20641;-71
2022/03/09 00:13:44;;;;;;;9.30;5.53;;;0.10;1.00;;;;;;5093308;28;20247;-72
2022/03/09 00:16:11;;;;;;;8.77;5.00;;;0.00;1.00;;;;;;5092087;28;20185;-72
2022/03/09 00:18:38;;;;;;;9.67;4.80;;;-0.10;1.00;;;;;;5104388;28;20294;-72
2022/03/09 00:21:05;;;;;;;11.57;7.73;;;-0.10;1.00;;;;;;5092614;28;20225;-72
2022/03/09 00:23:33;;;;;;;8.87;5.33;;;-0.10;1.00;;;;;;5102352;28;20610;-72
2022/03/09 00:26:01;;;;;;;12.13;5.87;;;0.00;1.00;;;;;;5113387;28;20197;-72
2022/03/09 00:28:28;;;;;;;10.57;4.90;;;0.00;1.00;;;;;;5104695;28;20205;-71
2022/03/09 00:30:55;;;;;;;11.60;5.47;;;0.20;99.90;;;;;;5091059;28;20251;-72
2022/03/09 00:33:22;;;;;;;10.27;5.40;;;0.10;99.90;;;;;;5105140;28;20208;-72
2022/03/09 00:35:48;;;;;;;10.03;4.90;;;0.10;68.00;;;;;;5092642;28;20198;-72
2022/03/09 00:38:15;;;;;;;8.50;4.70;;;0.10;99.90;;;;;;5092555;28;20713;-72
2022/03/09 00:40:47;;;;;;;10.17;5.47;;;0.10;99.90;;;;;;5091372;28;20221;-72
2022/03/09 00:43:15;;;;;;;9.10;5.00;;;0.00;99.90;;;;;;5093148;28;20213;-72
2022/03/09 00:45:42;;;;;;;9.13;4.97;;;-0.10;1.00;;;;;;5091587;28;20213;-72
2022/03/09 00:48:09;;;;;;;11.87;5.17;;;-0.30;1.00;;;;;;5091467;28;20263;-72
2022/03/09 00:50:36;;;;;;;7.73;4.60;;;-0.40;24.50;;;;;;5091704;28;20256;-71
2022/03/09 00:53:03;;;;;;;9.87;5.60;;;-0.50;99.90;;;;;;5090884;28;20547;-71
2022/03/09 00:55:30;;;;;;;8.73;5.47;;;-0.50;1.00;;;;;;5091255;28;20727;-72
2022/03/09 00:57:59;;;;;;;8.50;5.10;;;-0.50;99.90;;;;;;5091390;28;20186;-71
2022/03/09 01:00:26;;;;;;;9.40;5.10;;;-0.50;99.90;;;;;;5090458;28;20590;-72
2022/03/09 01:02:53;;;;;;;9.63;4.93;;;-0.50;1.00;;;;;;5092137;28;20202;-73
2022/03/09 01:05:20;;;;;;;12.53;4.83;;;-0.60;1.00;;;;;;5092672;28;20198;-72
2022/03/09 01:07:47;;;;;;;9.80;5.30;;;-0.60;1.00;;;;;;5090634;28;20223;-72
2022/03/09 01:10:14;;;;;;;9.27;5.07;;;-0.50;1.00;;;;;;5090820;28;20647;-72
2022/03/09 01:12:41;;;;;;;11.03;5.33;;;-0.60;1.00;;;;;;5090839;28;20279;-71
2022/03/09 01:15:10;;;;;;;8.10;4.83;;;-0.70;99.90;;;;;;5091332;28;20236;-72
2022/03/09 01:17:37;;;;;;;10.03;4.97;;;-0.60;99.90;;;;;;5104875;28;20197;-71
2022/03/09 01:20:05;;;;;;;9.33;5.03;;;-0.60;1.00;;;;;;5111932;28;20213;-72
2022/03/09 01:22:32;;;;;;;10.93;4.57;;;-0.50;1.00;;;;;;5084630;28;20942;-72
2022/03/09 01:24:59;;;;;;;11.07;4.90;;;-0.50;1.00;;;;;;5092102;28;20197;-72
2022/03/09 01:27:26;;;;;;;11.03;5.40;;;-0.60;1.00;;;;;;5099874;28;20227;-72
2022/03/09 01:29:53;;;;;;;9.70;5.57;;;-0.70;99.90;;;;;;5091879;28;20718;-72
2022/03/09 01:32:21;;;;;;;11.00;5.57;;;-0.80;99.90;;;;;;5096879;28;20205;-72
2022/03/09 01:34:48;;;;;;;8.60;5.10;;;-0.80;1.00;;;;;;5104684;28;20212;-72
2022/03/09 01:37:16;;;;;;;8.80;5.20;;;-0.70;1.00;;;;;;5101042;28;20713;-70
2022/03/09 01:39:42;;;;;;;10.10;5.83;;;-0.50;1.00;;;;;;5100532;28;20205;-69
2022/03/09 01:42:09;;;;;;;11.77;5.67;;;-0.30;99.90;;;;;;5103678;28;20226;-70
2022/03/09 01:44:37;;;;;;;11.73;6.10;;;-0.50;1.00;;;;;;5091320;28;20691;-70
2022/03/09 01:47:04;;;;;;;10.93;5.60;;;-0.60;4.90;;;;;;5088521;28;20285;-70
2022/03/09 01:49:33;;;;;;;9.07;5.30;;;-0.60;99.90;;;;;;5091670;28;20206;-70
2022/03/09 01:52:00;;;;;;;10.10;5.37;;;-0.70;1.00;;;;;;5074993;28;20225;-70
2022/03/09 01:54:28;;;;;;;11.03;5.33;;;-0.80;99.90;;;;;;5090659;28;20202;-70
2022/03/09 01:56:56;;;;;;;9.70;4.90;;;-0.60;1.00;;;;;;5094341;28;20198;-70
2022/03/09 01:59:23;;;;;;;11.30;5.17;;;-0.70;99.90;;;;;;5090986;28;20259;-70
2022/03/09 02:01:50;;;;;;;9.60;5.10;;;-0.90;1.00;;;;;;5090603;28;20271;-70
2022/03/09 02:04:18;;;;;;;10.20;5.60;;;-1.10;1.00;;;;;;5091942;28;20202;-70
2022/03/09 02:06:47;;;;;;;8.87;4.93;;;-1.10;99.90;;;;;;5094801;28;20673;-70
2022/03/09 02:11:58;;;;;;;12.63;5.30;;;-1.20;1.00;;;;;;5089883;28;20569;-70
2022/03/09 02:14:31;;;;;;;9.67;5.50;;;-1.30;99.90;;;;;;5089406;28;20197;-70
2022/03/09 02:17:01;;;;;;;9.37;5.47;;;-1.30;99.90;;;;;;5084414;28;20628;-70
2022/03/09 02:19:29;;;;;;;12.37;5.60;;;-1.30;99.90;;;;;;5097910;28;20193;-70
2022/03/09 02:22:05;;;;;;;9.03;5.20;;;-1.40;96.60;;;;;;5100451;28;20253;-70
2022/03/09 02:24:34;;;;;;;9.83;5.10;;;-1.40;98.40;;;;;;5090093;28;20193;-70
2022/03/09 02:27:01;;;;;;;9.83;5.23;;;-1.40;99.90;;;;;;5084364;28;20273;-70
2022/03/09 02:29:28;;;;;;;9.07;4.83;;;-1.30;99.90;;;;;;5086907;28;20197;-70
2022/03/09 02:31:55;;;;;;;10.90;5.60;;;-1.40;1.00;;;;;;5089145;28;20697;-70
2022/03/09 02:34:22;;;;;;;8.10;4.73;;;-1.30;1.00;;;;;;5090947;28;20225;-70
2022/03/09 02:36:49;;;;;;;13.23;5.10;;;-1.50;1.00;;;;;;5089559;28;20246;-70
2022/03/09 02:39:16;;;;;;;8.27;4.93;;;-1.50;33.30;;;;;;5091174;28;20243;-70
2022/03/09 02:41:45;;;;;;;9.40;5.57;;;-1.60;1.00;;;;;;5090629;28;20222;-70
2022/03/09 02:44:12;;;;;;;11.93;5.93;;;-1.40;1.00;;;;;;5091107;28;20201;-70
2022/03/09 02:46:39;;;;;;;9.83;5.50;;;-1.60;1.00;;;;;;5088999;28;20270;-70
2022/03/09 02:49:06;;;;;;;10.43;5.07;;;-1.60;1.00;;;;;;5091978;28;20598;-70
2022/03/09 02:51:33;;;;;;;12.03;5.30;;;-1.40;1.00;;;;;;5090812;28;20205;-70
2022/03/09 02:54:00;;;;;;;9.40;5.57;;;-1.50;1.00;;;;;;5100442;28;20208;-70
2022/03/09 02:56:27;;;;;;;12.63;5.70;;;-1.60;1.00;;;;;;5107461;28;20231;-70
2022/03/09 02:58:57;;;;;;;11.90;6.20;;;-1.60;1.00;;;;;;5094038;28;20247;-70
2022/03/09 03:01:24;;;;;;;10.93;5.50;;;-1.50;1.00;;;;;;5092059;28;20290;-70
2022/03/09 03:03:51;;;;;;;13.00;6.00;;;-1.70;99.90;;;;;;5096049;28;20702;-70
2022/03/09 03:06:18;;;;;;;11.77;5.93;;;-1.70;99.90;;;;;;5094346;28;20453;-70
2022/03/09 03:08:45;;;;;;;12.80;5.40;;;-1.70;1.00;;;;;;5094068;28;20247;-70
2022/03/09 03:11:12;;;;;;;13.33;6.33;;;-1.60;1.00;;;;;;5093890;28;20210;-70
2022/03/09 03:13:41;;;;;;;12.97;7.00;;;-1.60;1.00;;;;;;5093850;28;20246;-70
2022/03/09 03:16:11;;;;;;;11.33;5.93;;;-1.70;1.00;;;;;;5093450;28;20201;-70
2022/03/09 03:18:38;;;;;;;11.00;6.30;;;-1.70;1.00;;;;;;5093647;28;20636;-70
2022/03/09 03:21:06;;;;;;;10.00;5.97;;;-1.70;1.00;;;;;;5094206;28;20614;-70
2022/03/09 03:23:34;;;;;;;11.07;5.90;;;-1.70;1.00;;;;;;5103427;28;20243;-70
2022/03/09 03:26:04;;;;;;;10.47;6.03;;;-1.70;1.00;;;;;;5093540;28;20251;-70
2022/03/09 03:28:31;;;;;;;12.47;5.87;;;-1.70;1.00;;;;;;5095010;28;20209;-70
2022/03/09 03:30:59;;;;;;;11.70;6.43;;;-1.80;1.00;;;;;;5091555;28;20680;-70
2022/03/09 03:33:27;;;;;;;11.90;6.10;;;-1.80;1.00;;;;;;5092145;28;20256;-70
2022/03/09 03:35:54;;;;;;;14.97;6.50;;;-1.80;1.00;;;;;;5093933;28;20602;-70
2022/03/09 03:38:21;;;;;;;13.47;6.17;;;-1.60;99.90;;;;;;5093025;28;20643;-70
2022/03/09 03:40:48;;;;;;;12.03;6.57;;;-1.50;1.00;;;;;;5108403;28;20252;-70
2022/03/09 03:43:15;;;;;;;11.77;6.37;;;-1.60;1.00;;;;;;5100467;28;20595;-70
2022/03/09 03:45:42;;;;;;;12.60;6.60;;;-1.70;1.00;;;;;;5099717;28;20201;-70
2022/03/09 03:48:09;;;;;;;13.70;6.70;;;-1.80;1.00;;;;;;5090817;28;20267;-70
2022/03/09 03:50:38;;;;;;;10.10;6.10;;;-1.90;1.00;;;;;;5095651;28;20255;-70
2022/03/09 03:53:05;;;;;;;12.37;5.97;;;-1.90;1.00;;;;;;5092277;28;20215;-70
2022/03/09 03:55:32;;;;;;;14.33;6.17;;;-1.90;1.00;;;;;;5096171;28;20202;-70
2022/03/09 03:57:59;;;;;;;9.20;5.33;;;-1.90;99.90;;;;;;5093055;28;20855;-70
2022/03/09 04:00:26;;;;;;;9.37;5.27;;;-2.00;99.90;;;;;;5091586;28;20250;-70
2022/03/09 04:02:53;;;;;;;13.70;6.20;;;-1.90;99.90;;;;;;5093240;28;20630;-70
2022/03/09 04:05:20;;;;;;;8.47;5.20;;;-1.70;1.00;;;;;;5092818;28;20197;-70
2022/03/09 04:07:48;;;;;;;11.07;5.83;;;-1.80;99.90;;;;;;5092547;28;20612;-70
2022/03/09 04:10:15;;;;;;;10.77;5.93;;;-1.90;1.00;;;;;;5093185;28;20194;-70
2022/03/09 04:12:43;;;;;;;11.13;5.97;;;-1.80;1.00;;;;;;5101620;28;20205;-70
2022/03/09 04:15:10;;;;;;;11.63;6.23;;;-1.60;99.90;;;;;;5107508;28;20681;-70
2022/03/09 04:17:44;;;;;;;13.30;6.23;;;-1.50;1.00;;;;;;5092695;28;20216;-70
2022/03/09 04:20:12;;;;;;;10.63;5.87;;;-1.40;1.00;;;;;;5094496;28;20198;-70
2022/03/09 04:22:40;;;;;;;11.70;6.43;;;-1.50;1.00;;;;;;5093412;28;20745;-70
2022/03/09 04:25:09;;;;;;;10.97;6.23;;;-1.60;98.30;;;;;;5093609;28;20197;-70
2022/03/09 04:27:36;;;;;;;9.60;5.53;;;-1.80;1.00;;;;;;5092484;28;20235;-70
2022/03/09 04:30:05;;;;;;;10.37;5.17;;;-2.10;1.00;;;;;;5093112;28;20643;-70
2022/03/09 04:32:34;;;;;;;9.73;5.53;;;-2.00;99.90;;;;;;5100897;28;20258;-70
2022/03/09 04:35:01;;;;;;;10.13;6.10;;;-2.10;99.90;;;;;;5114026;28;20244;-70
2022/03/09 04:37:30;;;;;;;10.33;5.97;;;-2.10;99.90;;;;;;5112456;28;20201;-70
2022/03/09 04:39:57;;;;;;;10.47;5.80;;;-2.10;1.00;;;;;;5113978;28;20203;-70
2022/03/09 04:42:26;;;;;;;10.80;6.00;;;-2.10;99.90;;;;;;5112932;28;20328;-70
2022/03/09 04:44:53;;;;;;;12.20;5.73;;;-2.20;1.00;;;;;;5111628;28;20296;-70
2022/03/09 04:47:20;;;;;;;11.57;6.20;;;-2.30;1.00;;;;;;5112340;28;20705;-70
2022/03/09 04:49:47;;;;;;;18.77;9.00;;;-2.20;1.00;;;;;;5113479;28;20599;-70
2022/03/09 04:52:14;;;;;;;14.63;7.30;;;-2.30;1.00;;;;;;5112153;28;20205;-70
2022/03/09 04:54:41;;;;;;;11.30;6.27;;;-2.20;1.00;;;;;;5112367;28;20260;-70
2022/03/09 04:57:08;;;;;;;13.77;6.20;;;-2.00;1.00;;;;;;5112608;28;20546;-70
2022/03/09 04:59:37;;;;;;;15.20;6.73;;;-2.10;1.00;;;;;;5112963;28;20196;-70
2022/03/09 05:02:04;;;;;;;13.80;6.40;;;-2.00;1.00;;;;;;5112268;28;20282;-70
2022/03/09 05:04:31;;;;;;;11.50;6.13;;;-2.20;47.40;;;;;;5111661;28;20490;-70
2022/03/09 05:06:58;;;;;;;13.73;5.90;;;-2.00;1.00;;;;;;5111556;28;20247;-68
2022/03/09 05:09:25;;;;;;;12.40;5.97;;;-2.10;99.90;;;;;;5113008;28;20788;-69
2022/03/09 05:11:52;;;;;;;11.03;6.37;;;-2.20;47.30;;;;;;5112070;28;20212;-70
2022/03/09 05:14:19;;;;;;;13.23;6.27;;;-2.10;99.90;;;;;;5112907;28;20243;-70
2022/03/09 05:16:48;;;;;;;13.43;5.90;;;-1.90;99.90;;;;;;5111387;28;20201;-69
2022/03/09 05:19:15;;;;;;;13.40;5.50;;;-1.80;1.00;;;;;;5112351;28;20717;-69
2022/03/09 05:21:42;;;;;;;10.20;5.73;;;-2.10;99.90;;;;;;5111708;28;20633;-69
2022/03/09 05:24:09;;;;;;;12.80;6.10;;;-2.30;1.00;;;;;;5112928;28;20704;-69
2022/03/09 05:26:36;;;;;;;10.13;5.60;;;-2.40;1.00;;;;;;5111641;28;20611;-70
2022/03/09 05:29:04;;;;;;;11.17;5.63;;;-2.40;99.90;;;;;;5112819;28;20679;-69
2022/03/09 05:31:31;;;;;;;13.17;5.97;;;-2.40;1.00;;;;;;5111258;28;20237;-69
2022/03/09 05:33:59;;;;;;;11.23;5.97;;;-2.30;1.00;;;;;;5112218;28;20282;-70
2022/03/09 05:36:26;;;;;;;11.00;6.03;;;-2.40;1.00;;;;;;5111366;28;20232;-68
2022/03/09 05:38:53;;;;;;;11.73;6.23;;;-2.50;1.00;;;;;;5112708;28;20231;-69
2022/03/09 05:41:21;;;;;;;12.13;6.63;;;-2.50;1.00;;;;;;5111908;28;20564;-69
2022/03/09 05:43:49;;;;;;;15.00;5.87;;;-2.50;1.00;;;;;;5112362;28;20204;-69
2022/03/09 05:46:16;;;;;;;20.63;6.60;;;-2.20;99.90;;;;;;5108526;28;20213;-69
2022/03/09 05:48:43;;;;;;;16.23;7.03;;;-2.10;99.90;;;;;;5089888;28;20194;-69
2022/03/09 05:51:12;;;;;;;10.90;5.67;;;-2.10;1.70;;;;;;5092738;28;20320;-69
2022/03/09 05:53:39;;;;;;;13.80;6.30;;;-2.00;1.00;;;;;;5111038;28;20625;-69
2022/03/09 05:56:07;;;;;;;10.63;5.63;;;-1.90;1.00;;;;;;5111209;28;20658;-69
2022/03/09 05:58:34;;;;;;;13.03;6.13;;;-1.80;1.00;;;;;;5111195;28;20201;-69
2022/03/09 06:01:01;;;;;;;11.43;5.80;;;-1.70;99.90;;;;;;5111071;28;20250;-69
2022/03/09 06:03:28;;;;;;;9.40;5.40;;;-2.00;1.00;;;;;;5110260;28;20221;-69
2022/03/09 06:05:55;;;;;;;14.73;5.63;;;-2.20;99.90;;;;;;5110645;28;20196;-69
2022/03/09 06:08:23;;;;;;;12.00;6.37;;;-2.00;1.00;;;;;;5111180;28;20193;-70
2022/03/09 06:10:52;;;;;;;11.93;6.23;;;-2.00;1.00;;;;;;5093310;28;20623;-69
2022/03/09 06:13:19;;;;;;;10.37;5.37;;;-2.00;1.00;;;;;;5091505;28;20648;-69
2022/03/09 06:15:46;;;;;;;8.47;5.03;;;-2.00;99.90;;;;;;5091786;28;20209;-69
2022/03/09 06:18:13;;;;;;;12.43;5.33;;;-1.80;1.00;;;;;;5098039;28;20244;-69
2022/03/09 06:20:40;;;;;;;11.70;6.03;;;-2.00;1.00;;;;;;5101933;28;20658;-69
2022/03/09 06:23:08;;;;;;;9.57;5.43;;;-2.00;99.90;;;;;;5111554;28;20649;-69
2022/03/09 06:25:36;;;;;;;15.80;7.13;;;-2.00;1.00;;;;;;5110903;28;20616;-69
2022/03/09 06:28:03;;;;;;;17.23;8.40;;;-2.00;1.00;;;;;;5099957;28;20200;-69
2022/03/09 06:30:31;;;;;;;17.30;7.50;;;-1.80;99.90;;;;;;5109684;28;20197;-69
2022/03/09 06:32:58;;;;;;;12.60;6.73;;;-1.60;99.90;;;;;;5099174;28;20610;-69
2022/03/09 06:35:25;;;;;;;13.17;6.57;;;-1.70;23.40;;;;;;5090872;28;20201;-69
2022/03/09 06:37:52;;;;;;;13.83;7.30;;;-1.70;1.00;;;;;;5090506;28;20263;-69
2022/03/09 06:40:19;;;;;;;15.20;7.07;;;-1.80;99.90;;;;;;5091389;28;20205;-69
2022/03/09 06:42:47;;;;;;;14.00;7.13;;;-1.60;99.90;;;;;;5106283;28;20686;-69
2022/03/09 06:45:14;;;;;;;15.30;7.30;;;-1.40;1.00;;;;;;5110292;28;20647;-69
2022/03/09 06:47:41;;;;;;;13.80;6.80;;;-1.20;1.00;;;;;;5110634;28;20185;-69
2022/03/09 06:50:10;;;;;;;13.33;7.50;;;-1.00;99.90;;;;;;5110549;28;20262;-69
2022/03/09 06:52:38;;;;;;;14.40;7.83;;;-0.70;99.90;;;;;;5110129;28;20771;-69
2022/03/09 06:55:08;;;;;;;13.17;8.57;;;-0.60;1.00;;;;;;5091372;28;20439;-69
2022/03/09 06:57:37;;;;;;;12.70;7.80;;;-0.50;1.00;;;;;;5091733;28;20214;-69
2022/03/09 07:00:07;;;;;;;14.90;7.47;;;-0.30;1.00;;;;;;5089720;28;20193;-69
2022/03/09 07:02:34;;;;;;;12.90;7.10;;;-0.30;99.90;;;;;;5099437;28;20225;-69
2022/03/09 07:05:01;;;;;;;13.63;6.60;;;-0.40;99.90;;;;;;5110903;28;20201;-69
2022/03/09 07:07:28;;;;;;;11.03;6.27;;;-0.10;99.90;;;;;;5102544;28;20279;-69
2022/03/09 07:09:55;;;;;;;14.37;6.77;;;0.00;99.90;;;;;;5090911;28;20198;-69
2022/03/09 07:12:22;;;;;;;14.27;6.87;;;0.40;1.00;;;;;;5103205;28;20209;-69
2022/03/09 07:14:49;;;;;;;10.93;6.73;;;0.70;99.90;;;;;;5111094;28;20250;-69
2022/03/09 07:17:17;;;;;;;13.27;7.40;;;0.90;1.00;;;;;;5111606;28;20722;-69
2022/03/09 07:19:45;;;;;;;15.57;7.37;;;0.90;1.00;;;;;;5105400;28;20260;-69
2022/03/09 07:22:12;;;;;;;14.03;7.90;;;0.90;1.00;;;;;;5090547;28;20634;-69
2022/03/09 07:24:39;;;;;;;15.93;8.90;;;1.10;1.00;;;;;;5090216;28;20470;-69
2022/03/09 07:27:06;;;;;;;16.80;8.93;;;1.20;1.00;;;;;;5107264;28;20201;-69
2022/03/09 07:29:33;;;;;;;16.27;7.77;;;1.50;1.00;;;;;;5110012;28;20201;-69
2022/03/09 07:32:00;;;;;;;13.93;7.30;;;2.00;99.90;;;;;;5111675;28;20197;-69
2022/03/09 07:34:29;;;;;;;14.97;7.50;;;2.30;99.90;;;;;;5109855;28;20262;-70
2022/03/09 07:36:58;;;;;;;14.53;7.70;;;2.60;1.00;;;;;;5111362;28;20551;-70
2022/03/09 07:39:27;;;;;;;13.07;6.87;;;3.00;1.00;;;;;;5111360;28;20197;-70
2022/03/09 07:41:54;;;;;;;13.37;7.00;;;3.80;99.90;;;;;;5111962;28;20683;-69
2022/03/09 07:44:21;;;;;;;13.30;7.00;;;4.30;99.90;;;;;;5114500;28;20200;-69
2022/03/09 07:46:49;;;;;;;13.60;6.53;;;5.00;1.00;;;;;;5114670;28;20589;-69
2022/03/09 07:49:16;;;;;;;11.40;6.70;;;5.80;1.00;;;;;;5114965;28;20197;-68
2022/03/09 07:51:44;;;;;;;14.93;7.20;;;6.80;99.90;;;;;;5114933;28;20201;-69
2022/03/09 07:54:12;;;;;;;13.20;7.10;;;7.60;99.90;;;;;;5114827;28;20260;-68
2022/03/09 07:56:39;;;;;;;12.80;6.37;;;6.50;1.00;;;;;;5108129;28;20197;-68
2022/03/09 07:59:08;;;;;;;13.73;7.57;;;5.60;99.90;;;;;;5093476;28;20610;-68
2022/03/09 08:01:35;;;;;;;10.80;7.03;;;5.70;99.90;;;;;;5094526;28;20209;-68
2022/03/09 08:04:02;;;;;;;11.70;7.17;;;5.40;99.90;;;;;;5094161;28;20263;-68
2022/03/09 08:06:29;;;;;;;13.87;6.83;;;6.40;99.90;;;;;;5093901;28;20259;-68
2022/03/09 08:08:57;;;;;;;16.87;7.50;;;6.10;99.90;;;;;;5093983;28;20231;-68
2022/03/09 08:11:25;;;;;;;11.90;6.67;;;6.20;99.90;;;;;;5094411;28;20198;-68
2022/03/09 08:13:52;;;;;;;11.33;6.93;;;7.10;99.90;;;;;;5094083;28;20197;-68
2022/03/09 08:16:19;;;;;;;10.53;6.90;;;7.50;99.90;;;;;;5093864;28;20547;-68
2022/03/09 08:18:46;;;;;;;11.03;6.80;;;8.00;94.90;;;;;;5093316;28;20198;-69
2022/03/09 08:21:13;;;;;;;11.43;7.20;;;8.10;90.80;;;;;;5092617;28;20198;-69
2022/03/09 08:23:40;;;;;;;12.27;7.47;;;8.70;1.00;;;;;;5093814;28;20702;-69
2022/03/09 08:26:08;;;;;;;14.50;7.43;;;8.90;1.00;;;;;;5093992;28;20733;-69
2022/03/09 08:28:36;;;;;;;12.00;7.33;;;9.00;1.00;;;;;;5112605;28;20204;-69
2022/03/09 08:31:03;;;;;;;12.17;7.57;;;9.40;1.00;;;;;;5113028;28;20193;-69
2022/03/09 08:33:30;;;;;;;11.70;7.33;;;9.00;1.00;;;;;;5112764;28;20251;-68
2022/03/09 08:35:57;;;;;;;18.13;7.67;;;8.40;1.00;;;;;;5113413;28;20197;-68
2022/03/09 08:38:24;;;;;;;13.23;7.57;;;7.60;99.90;;;;;;5113733;28;20192;-68
2022/03/09 08:40:51;;;;;;;16.10;8.67;;;7.70;99.90;;;;;;5113746;28;20205;-68
2022/03/09 08:43:19;;;;;;;17.73;8.23;;;7.30;1.00;;;;;;5113230;28;20277;-68
2022/03/09 08:45:46;;;;;;;15.80;8.60;;;6.80;1.00;;;;;;5113536;28;20201;-68
2022/03/09 08:48:13;;;;;;;15.63;8.73;;;7.00;1.00;;;;;;5113305;28;20274;-68
2022/03/09 08:50:40;;;;;;;16.53;8.83;;;6.90;1.00;;;;;;5111877;28;20205;-68
2022/03/09 08:53:08;;;;;;;17.57;8.57;;;6.60;1.00;;;;;;5113330;28;20568;-68
2022/03/09 08:55:35;;;;;;;16.40;8.03;;;6.70;1.00;;;;;;5113627;28;20259;-68
2022/03/09 08:58:02;;;;;;;15.47;7.20;;;6.80;1.00;;;;;;5100775;28;20202;-68
2022/03/09 09:00:30;;;;;;;19.73;8.10;;;6.90;1.00;;;;;;5091979;28;20205;-68
2022/03/09 09:02:57;;;;;;;11.93;7.00;;;7.00;1.00;;;;;;5091592;28;20214;-68
2022/03/09 09:05:24;;;;;;;12.20;6.60;;;7.30;1.00;;;;;;5093117;28;20655;-68
2022/03/09 09:07:51;;;;;;;12.67;6.97;;;7.70;99.90;;;;;;5093004;28;20203;-68
2022/03/09 09:10:18;;;;;;;13.30;7.10;;;8.10;18.80;;;;;;5093242;28;20202;-68
2022/03/09 09:12:46;;;;;;;18.27;8.07;;;8.40;1.00;;;;;;5093081;28;20209;-68
2022/03/09 09:15:13;;;;;;;13.43;6.93;;;8.60;1.00;;;;;;5096053;28;20660;-68
2022/03/09 09:17:41;;;;;;;12.80;6.60;;;9.10;1.00;;;;;;5090807;28;20619;-69
2022/03/09 09:20:10;;;;;;;13.10;7.53;;;9.60;1.00;;;;;;5091739;28;20237;-68
2022/03/09 09:22:37;;;;;;;14.43;7.20;;;9.50;1.00;;;;;;5092796;28;20264;-68
2022/03/09 09:25:04;;;;;;;14.33;6.90;;;9.30;1.00;;;;;;5092833;28;20694;-69
2022/03/09 09:27:31;;;;;;;13.47;7.70;;;9.40;1.00;;;;;;5092482;28;20244;-68
2022/03/09 09:29:58;;;;;;;11.93;7.50;;;10.00;1.00;;;;;;5092149;28;20264;-69
2022/03/09 09:32:25;;;;;;;12.23;6.80;;;10.30;1.00;;;;;;5090355;28;20255;-68
2022/03/09 09:34:54;;;;;;;14.97;7.73;;;10.60;1.00;;;;;;5091406;28;20248;-69
2022/03/09 09:37:21;;;;;;;10.63;6.80;;;10.80;1.00;;;;;;5090879;28;20244;-69
2022/03/09 09:39:48;;;;;;;12.97;7.60;;;10.80;1.00;;;;;;5091458;28;20198;-68
2022/03/09 09:42:15;;;;;;;10.97;7.00;;;10.50;1.00;;;;;;5092457;28;20644;-69
2022/03/09 09:44:43;;;;;;;13.70;7.57;;;10.40;1.00;;;;;;5092128;28;20312;-68
2022/03/09 09:47:14;;;;;;;13.97;7.53;;;10.40;1.00;;;;;;5092137;28;20656;-68
2022/03/09 09:49:41;;;;;;;11.67;6.97;;;10.20;1.00;;;;;;5092425;28;20292;-68
2022/03/09 09:52:10;;;;;;;12.20;7.07;;;10.50;1.00;;;;;;5092247;28;20210;-69
2022/03/09 09:54:37;;;;;;;12.87;7.20;;;11.10;1.00;;;;;;5092292;28;20205;-69
2022/03/09 09:57:05;;;;;;;12.27;7.03;;;11.50;1.00;;;;;;5091864;28;20289;-68
2022/03/09 09:59:33;;;;;;;14.00;7.43;;;10.60;1.00;;;;;;5091746;28;20201;-69
2022/03/09 10:02:00;;;;;;;12.67;7.50;;;10.60;1.00;;;;;;5091616;28;20241;-69
2022/03/09 10:04:27;;;;;;;13.77;8.17;;;10.50;1.00;;;;;;5091934;28;20275;-68
2022/03/09 10:06:54;;;;;;;10.33;6.97;;;10.60;1.00;;;;;;5092000;28;20205;-68
2022/03/09 10:09:23;;;;;;;11.93;8.13;;;10.70;1.00;;;;;;5091989;28;20209;-68
2022/03/09 10:11:52;;;;;;;10.73;7.27;;;10.70;1.00;;;;;;5091950;28;20648;-68
2022/03/09 10:14:39;;;;;;;13.73;7.57;;;11.00;1.00;;;;;;5096508;28;20318;-68
2022/03/09 10:17:08;;;;;;;12.70;7.50;;;10.90;1.00;;;;;;5086734;28;20201;-68
2022/03/09 10:19:37;;;;;;;16.67;7.60;;;10.70;1.00;;;;;;5111548;28;20200;-68
2022/03/09 10:22:26;;;;;;;12.47;7.30;;;10.70;1.00;;;;;;5112029;28;20197;-68
2022/03/09 10:24:56;;;;;;;14.63;7.90;;;11.20;1.00;;;;;;5111948;28;20751;-69
2022/03/09 10:27:36;;;;;;;10.00;6.60;;;11.40;1.00;;;;;;5084028;28;20247;-68
2022/03/09 10:30:05;;;;;;;12.23;7.17;;;11.30;1.00;;;;;;5089076;28;20198;-68
2022/03/09 10:32:50;;;;;;;14.60;7.50;;;11.20;1.00;;;;;;5091362;28;20550;-68
2022/03/09 10:35:19;;;;;;;14.97;7.67;;;11.40;1.00;;;;;;5091920;28;20205;-68
2022/03/09 10:37:48;;;;;;;13.17;7.70;;;11.50;1.00;;;;;;5091562;28;20555;-68
2022/03/09 10:40:18;;;;;;;11.60;7.00;;;11.60;1.00;;;;;;5091548;28;20557;-68
2022/03/09 10:42:46;;;;;;;12.70;7.90;;;11.30;1.00;;;;;;5091544;28;20198;-68
2022/03/09 10:45:13;;;;;;;14.70;8.83;;;11.60;1.00;;;;;;5087017;28;20351;-68
2022/03/09 10:47:42;;;;;;;15.13;7.60;;;11.50;1.00;;;;;;5090185;28;20205;-68
2022/03/09 10:50:14;;;;;;;12.57;7.80;;;12.60;1.00;;;;;;5090753;28;20197;-68
2022/03/09 10:53:00;;;;;;;10.93;6.83;;;13.00;1.00;;;;;;5091529;28;20209;-68
2022/03/09 10:55:30;;;;;;;11.77;7.40;;;12.80;1.00;;;;;;5091686;28;20217;-68
2022/03/09 10:58:17;;;;;;;12.27;7.67;;;13.40;1.00;;;;;;5090974;28;20283;-68
2022/03/09 11:00:46;;;;;;;13.33;7.77;;;13.40;1.00;;;;;;5090917;28;20711;-68
2022/03/09 11:03:15;;;;;;;11.73;7.67;;;13.60;1.00;;;;;;5090246;28;20205;-68
2022/03/09 11:05:50;;;;;;;12.03;7.57;;;13.50;1.00;;;;;;5090630;28;20198;-68
2022/03/09 11:08:18;;;;;;;10.00;7.00;;;13.70;1.00;;;;;;5091314;28;20205;-69
2022/03/09 11:10:48;;;;;;;14.73;7.40;;;13.90;1.00;;;;;;5091695;28;20656;-69
2022/03/09 11:13:16;;;;;;;10.30;7.00;;;14.40;1.00;;;;;;5091468;28;20209;-69
2022/03/09 11:15:44;;;;;;;10.93;7.10;;;14.10;1.00;;;;;;5090573;28;20559;-69
2022/03/09 11:18:14;;;;;;;9.77;6.73;;;13.30;1.00;;;;;;5094045;28;20240;-69
2022/03/09 11:20:41;;;;;;;9.83;6.33;;;14.10;1.00;;;;;;5094199;28;20284;-69
2022/03/09 11:23:08;;;;;;;11.57;7.20;;;13.80;1.00;;;;;;5094376;28;20252;-70
2022/03/09 11:25:36;;;;;;;9.10;6.13;;;14.40;1.00;;;;;;5095187;28;20197;-70
2022/03/09 11:28:06;;;;;;;6.50;5.50;;;14.00;1.00;;;;;;5094071;28;20656;-70
2022/03/09 11:30:34;;;;;;;9.07;5.60;;;14.20;1.00;;;;;;5093815;28;20205;-70
2022/03/09 11:33:03;;;;;;;10.03;5.83;;;14.10;1.00;;;;;;5093580;28;20292;-69
2022/03/09 11:35:35;;;;;;;9.00;5.60;;;14.10;1.00;;;;;;5094924;28;20201;-69
2022/03/09 11:38:02;;;;;;;9.97;6.37;;;14.20;1.00;;;;;;5094622;28;20221;-69
2022/03/09 11:40:29;;;;;;;8.47;5.97;;;13.70;1.00;;;;;;5094868;28;20244;-69
2022/03/09 11:42:56;;;;;;;7.73;4.77;;;13.50;1.00;;;;;;5095055;28;20197;-69
2022/03/09 11:45:34;;;;;;;7.37;5.67;;;13.90;1.00;;;;;;5093957;28;20282;-69
2022/03/09 11:48:05;;;;;;;6.60;4.80;;;13.90;1.00;;;;;;5093044;28;20197;-69
2022/03/09 11:50:35;;;;;;;6.77;4.70;;;14.10;1.00;;;;;;5092755;28;20559;-69
2022/03/09 11:53:05;;;;;;;9.10;5.97;;;13.80;1.00;;;;;;5094507;28;20209;-69
2022/03/09 11:55:33;;;;;;;8.80;6.10;;;14.30;1.00;;;;;;5094382;28;20617;-69
2022/03/09 11:58:11;;;;;;;9.23;6.07;;;14.10;1.00;;;;;;5093812;28;20334;-69
2022/03/09 12:00:40;;;;;;;8.10;5.70;;;14.90;1.00;;;;;;5094047;28;20233;-70
2022/03/09 12:03:07;;;;;;;6.93;5.17;;;14.90;1.00;;;;;;5092931;28;20197;-69
2022/03/09 12:05:37;;;;;;;8.07;6.10;;;15.10;1.00;;;;;;5094325;28;20251;-70
2022/03/09 12:08:05;;;;;;;11.47;5.73;;;14.40;1.00;;;;;;5093988;28;20202;-69
2022/03/09 12:10:53;;;;;;;11.03;5.60;;;13.70;1.00;;;;;;5094002;28;20244;-70
2022/03/09 12:13:33;;;;;;;8.30;5.80;;;15.00;1.00;;;;;;5093980;28;20393;-70
2022/03/09 12:16:17;;;;;;;9.77;6.43;;;14.30;1.00;;;;;;5091809;28;20205;-70
2022/03/09 12:18:50;;;;;;;11.97;7.17;;;14.50;1.00;;;;;;5091484;28;20202;-70
2022/03/09 12:21:20;;;;;;;10.03;6.57;;;15.00;1.00;;;;;;5073325;28;20189;-70
2022/03/09 12:24:29;;;;;;;10.93;6.70;;;15.00;1.00;;;;;;5093897;28;20295;-70
2022/03/09 12:26:56;;;;;;;9.10;6.50;;;14.60;1.00;;;;;;5093444;28;20293;-70
2022/03/09 12:29:40;;;;;;;8.10;5.97;;;14.80;1.00;;;;;;5091500;28;20469;-70
2022/03/09 12:32:11;;;;;;;9.23;6.00;;;14.30;1.00;;;;;;5093718;28;20259;-69
2022/03/09 12:34:41;;;;;;;10.00;6.40;;;15.30;1.00;;;;;;5093674;28;20252;-70
2022/03/09 12:37:10;;;;;;;8.13;5.80;;;15.50;1.00;;;;;;5093204;28;20558;-70
2022/03/09 12:39:38;;;;;;;9.33;6.33;;;14.80;1.00;;;;;;5093554;28;20668;-70
2022/03/09 12:42:06;;;;;;;8.83;6.70;;;14.70;1.00;;;;;;5102888;28;20662;-70
2022/03/09 12:44:35;;;;;;;9.33;6.40;;;15.60;1.00;;;;;;5113461;28;20562;-68
2022/03/09 12:47:04;;;;;;;9.93;6.17;;;15.20;1.00;;;;;;5113116;28;20232;-69
2022/03/09 12:49:35;;;;;;;8.32;6.13;;;15.50;1.00;;;;;;5113540;28;20240;-69
2022/03/09 12:52:06;;;;;;;7.57;5.77;;;15.70;1.00;;;;;;5112130;28;20201;-69
2022/03/09 12:54:42;;;;;;;10.50;6.20;;;15.30;1.00;;;;;;5113645;28;20284;-69
2022/03/09 12:57:12;;;;;;;11.97;6.63;;;15.20;1.00;;;;;;5113226;28;20205;-69